createdAt,value
2023-01-07T00:01:18.988Z,-0.95
2023-01-07T00:03:48.263Z,-0.95
2023-01-07T00:06:17.659Z,-0.92
2023-01-07T00:08:46.518Z,-0.89
2023-01-07T00:11:16.600Z,-0.90
2023-01-07T00:13:44.751Z,-0.88
2023-01-07T00:16:17.008Z,-0.86
2023-01-07T00:18:46.533Z,-0.84
2023-01-07T00:21:16.004Z,-0.82
2023-01-07T00:23:44.761Z,-0.78
2023-01-07T00:26:32.683Z,-0.71
2023-01-07T00:29:00.696Z,-0.61
2023-01-07T00:31:30.510Z,-0.53
2023-01-07T00:33:59.121Z,-0.47
2023-01-07T00:36:30.103Z,-0.39
2023-01-07T00:38:59.295Z,-0.34
2023-01-07T00:41:27.374Z,-0.26
2023-01-07T00:43:56.253Z,-0.16
2023-01-07T00:46:24.209Z,-0.09
2023-01-07T00:48:52.054Z,-0.02
2023-01-07T00:51:20.724Z,0.03
2023-01-07T00:53:49.982Z,0.06
2023-01-07T00:56:19.241Z,0.07
2023-01-07T00:58:47.465Z,0.08
2023-01-07T01:01:15.516Z,0.09
2023-01-07T01:03:43.491Z,0.09
2023-01-07T01:06:13.634Z,0.10
2023-01-07T01:08:42.943Z,0.07
2023-01-07T01:11:11.993Z,0.08
2023-01-07T01:13:40.549Z,0.08
2023-01-07T01:16:16.016Z,0.08
2023-01-07T01:18:46.330Z,0.10
2023-01-07T01:21:17.371Z,0.11
2023-01-07T01:23:45.301Z,0.12
2023-01-07T01:26:14.819Z,0.11
2023-01-07T01:28:45.395Z,0.14
2023-01-07T01:31:14.229Z,0.15
2023-01-07T01:33:48.450Z,0.15
2023-01-07T01:36:17.939Z,0.15
2023-01-07T01:38:45.956Z,0.18
2023-01-07T01:41:16.398Z,0.22
2023-01-07T01:43:45.220Z,0.24
2023-01-07T01:46:18.188Z,0.28
2023-01-07T01:48:49.238Z,0.29
2023-01-07T01:51:19.365Z,0.34
2023-01-07T01:53:48.008Z,0.41
2023-01-07T01:56:32.132Z,0.43
2023-01-07T01:59:03.149Z,0.42
2023-01-07T02:01:33.930Z,0.45
2023-01-07T02:04:07.753Z,0.41
2023-01-07T02:06:44.104Z,0.40
2023-01-07T02:09:14.542Z,0.39
2023-01-07T02:12:01.199Z,0.41
2023-01-07T02:14:48.119Z,0.41
2023-01-07T02:17:34.921Z,0.37
2023-01-07T02:20:32.237Z,0.36
2023-01-07T02:23:34.578Z,0.36
2023-01-07T02:26:15.350Z,0.30
2023-01-07T02:29:00.954Z,0.29
2023-01-07T02:31:29.068Z,0.29
2023-01-07T02:33:57.102Z,0.29
2023-01-07T02:36:48.775Z,0.29
2023-01-07T02:39:35.675Z,0.31
2023-01-07T02:42:20.295Z,0.35
2023-01-07T02:44:54.442Z,0.35
2023-01-07T02:47:32.612Z,0.35
2023-01-07T02:50:01.306Z,0.31
2023-01-07T02:52:32.076Z,0.27
2023-01-07T02:55:02.820Z,0.25
2023-01-07T02:57:40.588Z,0.27
2023-01-07T03:00:15.205Z,0.28
2023-01-07T03:02:52.234Z,0.27
2023-01-07T03:05:35.038Z,0.28
2023-01-07T03:08:21.766Z,0.27
2023-01-07T03:11:06.026Z,0.31
2023-01-07T03:13:59.015Z,0.37
2023-01-07T03:16:36.279Z,0.41
2023-01-07T03:19:07.510Z,0.44
2023-01-07T03:21:36.900Z,0.45
2023-01-07T03:24:06.753Z,0.49
2023-01-07T03:26:39.903Z,0.53
2023-01-07T03:29:09.298Z,0.54
2023-01-07T03:31:40.388Z,0.56
2023-01-07T03:34:10.354Z,0.61
2023-01-07T03:36:43.198Z,0.62
2023-01-07T03:39:12.680Z,0.64
2023-01-07T03:41:59.938Z,0.66
2023-01-07T03:44:28.191Z,0.63
2023-01-07T03:46:56.172Z,0.67
2023-01-07T03:49:24.057Z,0.69
2023-01-07T03:51:54.955Z,0.71
2023-01-07T03:54:26.411Z,0.77
2023-01-07T03:56:54.305Z,0.75
2023-01-07T03:59:22.148Z,0.81
2023-01-07T04:01:50.231Z,0.81
2023-01-07T04:04:18.893Z,0.74
2023-01-07T04:06:47.783Z,0.73
2023-01-07T04:09:18.805Z,0.80
2023-01-07T04:11:47.338Z,0.84
2023-01-07T04:14:15.809Z,0.90
2023-01-07T04:16:44.169Z,0.91
2023-01-07T04:19:12.283Z,0.95
2023-01-07T04:21:40.421Z,1.00
2023-01-07T04:24:08.624Z,1.01
2023-01-07T04:26:37.302Z,1.05
2023-01-07T04:29:05.108Z,1.06
2023-01-07T04:31:33.797Z,1.06
2023-01-07T04:34:01.641Z,1.03
2023-01-07T04:36:29.429Z,1.07
2023-01-07T04:38:58.035Z,1.06
2023-01-07T04:41:26.538Z,1.01
2023-01-07T04:43:54.587Z,1.05
2023-01-07T04:46:24.681Z,0.97
2023-01-07T04:48:52.526Z,0.87
2023-01-07T04:51:20.541Z,0.91
2023-01-07T04:53:48.644Z,0.96
2023-01-07T04:56:16.618Z,0.97
2023-01-07T04:58:44.441Z,0.97
2023-01-07T05:01:12.532Z,0.95
2023-01-07T05:03:40.935Z,0.95
2023-01-07T05:06:09.608Z,0.99
2023-01-07T05:08:38.215Z,1.01
2023-01-07T05:11:06.477Z,1.02
2023-01-07T05:13:35.608Z,1.01
2023-01-07T05:16:04.769Z,1.06
2023-01-07T05:18:32.924Z,1.07
2023-01-07T05:21:00.685Z,0.99
2023-01-07T05:23:29.437Z,1.05
2023-01-07T05:25:58.090Z,1.07
2023-01-07T05:28:25.869Z,1.05
2023-01-07T05:30:54.299Z,1.04
2023-01-07T05:33:22.213Z,0.99
2023-01-07T05:35:50.071Z,0.98
2023-01-07T05:38:18.453Z,1.02
2023-01-07T05:40:50.073Z,1.05
2023-01-07T05:43:21.615Z,1.02
2023-01-07T05:45:49.797Z,1.04
2023-01-07T05:48:17.799Z,1.03
2023-01-07T05:50:45.620Z,1.06
2023-01-07T05:53:13.593Z,1.07
2023-01-07T05:55:41.449Z,1.08
2023-01-07T05:58:09.363Z,1.08
2023-01-07T06:00:37.598Z,1.07
2023-01-07T06:03:05.954Z,1.09
2023-01-07T06:05:33.849Z,1.13
2023-01-07T06:08:01.736Z,1.10
2023-01-07T06:10:29.561Z,1.15
2023-01-07T06:12:57.420Z,1.15
2023-01-07T06:15:25.559Z,0.96
2023-01-07T06:17:53.667Z,1.05
2023-01-07T06:20:21.545Z,1.05
2023-01-07T06:22:49.384Z,1.10
2023-01-07T06:25:17.612Z,1.15
2023-01-07T06:27:46.140Z,1.11
2023-01-07T06:30:14.163Z,1.13
2023-01-07T06:32:43.037Z,1.22
2023-01-07T06:35:11.685Z,1.27
2023-01-07T06:37:39.744Z,1.28
2023-01-07T06:40:08.017Z,1.31
2023-01-07T06:42:35.963Z,1.35
2023-01-07T06:45:04.177Z,1.41
2023-01-07T06:47:32.103Z,1.41
2023-01-07T06:50:00.024Z,1.47
2023-01-07T06:52:28.037Z,1.50
2023-01-07T06:54:55.816Z,1.56
2023-01-07T06:57:23.635Z,1.57
2023-01-07T06:59:52.467Z,1.62
2023-01-07T07:02:22.370Z,1.68
2023-01-07T07:04:50.418Z,1.64
2023-01-07T07:07:18.954Z,1.66
2023-01-07T07:09:46.835Z,1.63
2023-01-07T07:12:15.101Z,1.62
2023-01-07T07:14:43.075Z,1.64
2023-01-07T07:17:11.337Z,1.63
2023-01-07T07:19:39.198Z,1.69
2023-01-07T07:22:07.174Z,1.64
2023-01-07T07:24:35.236Z,1.57
2023-01-07T07:27:03.934Z,1.54
2023-01-07T07:29:33.616Z,1.60
2023-01-07T07:32:01.570Z,1.61
2023-01-07T07:34:29.455Z,1.58
2023-01-07T07:36:58.585Z,1.59
2023-01-07T07:39:27.823Z,1.64
2023-01-07T07:41:56.308Z,1.75
2023-01-07T07:44:24.416Z,1.85
2023-01-07T07:46:52.358Z,1.91
2023-01-07T07:49:20.234Z,1.91
2023-01-07T07:51:48.134Z,1.99
2023-01-07T07:54:16.534Z,1.98
2023-01-07T07:56:44.515Z,1.99
2023-01-07T07:59:13.786Z,2.07
2023-01-07T08:01:44.800Z,2.07
2023-01-07T08:04:13.045Z,2.15
2023-01-07T08:06:40.936Z,2.22
2023-01-07T08:09:09.606Z,2.25
2023-01-07T08:11:37.658Z,2.25
2023-01-07T08:14:05.539Z,2.25
2023-01-07T08:16:34.058Z,2.24
2023-01-07T08:19:01.915Z,2.14
2023-01-07T08:21:29.783Z,2.15
2023-01-07T08:23:58.069Z,2.08
2023-01-07T08:26:27.003Z,2.16
2023-01-07T08:28:55.008Z,2.15
2023-01-07T08:31:22.934Z,2.17
2023-01-07T08:33:51.343Z,2.17
2023-01-07T08:36:23.054Z,2.20
2023-01-07T08:38:52.605Z,2.27
2023-01-07T08:41:21.706Z,2.31
2023-01-07T08:43:57.871Z,2.33
2023-01-07T08:46:26.136Z,2.38
2023-01-07T08:48:53.978Z,2.40
2023-01-07T08:51:21.786Z,2.34
2023-01-07T08:53:49.697Z,2.44
2023-01-07T08:56:18.370Z,2.48
2023-01-07T08:58:46.134Z,2.52
2023-01-07T09:01:14.300Z,2.54
2023-01-07T09:03:42.417Z,2.65
2023-01-07T09:06:10.509Z,2.59
2023-01-07T09:08:38.465Z,2.53
2023-01-07T09:11:06.325Z,2.58
2023-01-07T09:13:34.453Z,2.65
2023-01-07T09:16:02.317Z,2.77
2023-01-07T09:18:30.479Z,2.80
2023-01-07T09:20:58.372Z,2.80
2023-01-07T09:23:26.211Z,2.95
2023-01-07T09:25:54.441Z,3.01
2023-01-07T09:28:23.063Z,3.00
2023-01-07T09:30:51.041Z,2.99
2023-01-07T09:33:19.030Z,2.98
2023-01-07T09:35:46.973Z,2.90
2023-01-07T09:38:17.896Z,2.87
2023-01-07T09:40:45.934Z,2.96
2023-01-07T09:43:13.755Z,3.00
2023-01-07T09:45:44.719Z,2.97
2023-01-07T09:48:19.394Z,3.10
2023-01-07T09:50:56.575Z,3.16
2023-01-07T09:53:30.751Z,3.13
2023-01-07T09:56:11.767Z,3.19
2023-01-07T09:58:45.094Z,3.32
2023-01-07T10:01:32.062Z,3.43
2023-01-07T10:04:09.236Z,3.39
2023-01-07T10:06:43.594Z,3.44
2023-01-07T10:09:21.536Z,3.44
2023-01-07T10:11:53.343Z,3.45
2023-01-07T10:14:40.677Z,3.44
2023-01-07T10:17:27.499Z,3.37
2023-01-07T10:20:30.954Z,3.40
2023-01-07T10:22:59.444Z,3.43
2023-01-07T10:25:40.716Z,3.50
2023-01-07T10:28:13.802Z,3.50
2023-01-07T10:30:44.793Z,3.51
2023-01-07T10:33:25.479Z,3.53
2023-01-07T10:36:00.025Z,3.48
2023-01-07T10:38:30.229Z,3.48
2023-01-07T10:41:02.113Z,3.40
2023-01-07T10:43:45.314Z,3.22
2023-01-07T10:46:32.224Z,3.38
2023-01-07T10:49:03.097Z,3.50
2023-01-07T10:51:45.611Z,3.49
2023-01-07T10:54:25.732Z,3.54
2023-01-07T10:57:01.262Z,3.54
2023-01-07T10:59:29.380Z,3.48
2023-01-07T11:01:59.453Z,3.50
2023-01-07T11:04:30.105Z,3.52
2023-01-07T11:07:04.849Z,3.49
2023-01-07T11:09:41.395Z,3.34
2023-01-07T11:12:29.828Z,3.28
2023-01-07T11:14:59.859Z,3.43
2023-01-07T11:17:30.918Z,3.48
2023-01-07T11:19:58.756Z,3.47
2023-01-07T11:22:27.809Z,3.69
2023-01-07T11:24:57.110Z,3.93
2023-01-07T11:27:30.753Z,4.02
2023-01-07T11:30:10.350Z,4.10
2023-01-07T11:32:40.539Z,3.99
2023-01-07T11:35:21.806Z,3.93
2023-01-07T11:37:51.182Z,4.04
2023-01-07T11:40:23.351Z,4.23
2023-01-07T11:42:54.416Z,4.22
2023-01-07T11:45:27.739Z,4.25
2023-01-07T11:48:01.535Z,4.17
2023-01-07T11:50:34.623Z,4.09
2023-01-07T11:53:07.517Z,3.94
2023-01-07T11:55:35.551Z,4.02
2023-01-07T11:58:28.914Z,4.10
2023-01-07T12:01:03.140Z,3.94
2023-01-07T12:03:31.855Z,4.01
2023-01-07T12:06:05.999Z,3.82
2023-01-07T12:08:34.897Z,3.83
2023-01-07T12:11:09.673Z,3.93
2023-01-07T12:13:41.822Z,4.01
2023-01-07T12:16:10.712Z,4.01
2023-01-07T12:18:57.999Z,4.06
2023-01-07T12:21:25.785Z,4.05
2023-01-07T12:24:02.954Z,4.16
2023-01-07T12:26:42.427Z,4.14
2023-01-07T12:29:11.561Z,4.18
2023-01-07T12:31:59.174Z,4.23
2023-01-07T12:34:47.549Z,4.24
2023-01-07T12:37:29.656Z,3.92
2023-01-07T12:40:06.753Z,4.09
2023-01-07T12:42:36.878Z,4.13
2023-01-07T12:45:06.565Z,4.28
2023-01-07T12:47:36.371Z,4.31
2023-01-07T12:50:14.703Z,4.32
2023-01-07T12:52:57.580Z,4.03
2023-01-07T12:55:36.380Z,4.07
2023-01-07T12:58:13.041Z,4.09
2023-01-07T13:00:44.388Z,4.09
2023-01-07T13:03:32.362Z,4.13
2023-01-07T13:06:09.961Z,4.19
2023-01-07T13:08:44.138Z,4.19
2023-01-07T13:11:18.081Z,4.23
2023-01-07T13:13:49.889Z,4.29
2023-01-07T13:16:17.930Z,4.32
2023-01-07T13:18:48.161Z,4.22
2023-01-07T13:21:17.304Z,4.20
2023-01-07T13:24:11.488Z,4.14
2023-01-07T13:26:45.585Z,4.19
2023-01-07T13:29:21.024Z,4.16
2023-01-07T13:32:09.306Z,3.98
2023-01-07T13:34:40.292Z,4.10
2023-01-07T13:37:37.779Z,4.11
2023-01-07T13:40:05.758Z,4.13
2023-01-07T13:42:39.730Z,4.16
2023-01-07T13:45:07.662Z,4.17
2023-01-07T13:47:47.008Z,4.02
2023-01-07T13:50:38.367Z,3.88
2023-01-07T13:53:08.165Z,4.00
2023-01-07T13:55:40.805Z,4.05
2023-01-07T13:58:27.844Z,4.03
2023-01-07T14:01:07.276Z,4.08
2023-01-07T14:03:44.250Z,3.90
2023-01-07T14:06:19.287Z,4.02
2023-01-07T14:08:58.747Z,4.02
2023-01-07T14:11:30.705Z,3.96
2023-01-07T14:14:05.361Z,3.97
2023-01-07T14:16:33.448Z,3.93
2023-01-07T14:19:03.478Z,3.93
2023-01-07T14:21:49.952Z,3.93
2023-01-07T14:24:36.576Z,3.96
2023-01-07T14:27:19.940Z,3.94
2023-01-07T14:29:49.117Z,3.92
2023-01-07T14:32:35.236Z,3.94
2023-01-07T14:35:19.856Z,4.05
2023-01-07T14:37:49.682Z,4.02
2023-01-07T14:40:26.773Z,3.93
2023-01-07T14:42:55.857Z,3.98
2023-01-07T14:45:40.143Z,4.01
2023-01-07T14:48:07.920Z,4.01
2023-01-07T14:50:43.239Z,3.92
2023-01-07T14:53:29.790Z,3.94
2023-01-07T14:56:16.614Z,3.85
2023-01-07T14:58:57.384Z,3.95
2023-01-07T15:01:25.622Z,3.93
2023-01-07T15:04:02.741Z,3.94
2023-01-07T15:06:39.356Z,3.91
2023-01-07T15:09:44.279Z,3.86
2023-01-07T15:12:39.605Z,3.86
2023-01-07T15:15:33.168Z,3.83
2023-01-07T15:18:01.084Z,3.79
2023-01-07T15:20:41.667Z,3.78
2023-01-07T15:23:20.131Z,3.82
2023-01-07T15:26:00.344Z,3.84
2023-01-07T15:28:31.223Z,3.85
2023-01-07T15:31:05.326Z,3.85
2023-01-07T15:33:44.926Z,3.78
2023-01-07T15:36:15.653Z,3.86
2023-01-07T15:38:46.869Z,3.85
2023-01-07T15:41:26.947Z,3.84
2023-01-07T15:43:55.426Z,3.87
2023-01-07T15:46:24.856Z,3.84
2023-01-07T15:49:05.153Z,3.78
2023-01-07T15:51:37.732Z,3.79
2023-01-07T15:54:21.329Z,3.81
2023-01-07T15:56:50.031Z,3.82
2023-01-07T15:59:23.388Z,3.88
2023-01-07T16:01:54.987Z,3.86
2023-01-07T16:04:25.940Z,3.83
2023-01-07T16:06:58.455Z,3.80
2023-01-07T16:09:27.975Z,3.78
2023-01-07T16:11:55.977Z,3.76
2023-01-07T16:14:26.477Z,3.70
2023-01-07T16:17:06.314Z,3.74
2023-01-07T16:19:34.504Z,3.73
2023-01-07T16:22:03.277Z,3.70
2023-01-07T16:24:32.108Z,3.62
2023-01-07T16:27:05.399Z,3.63
2023-01-07T16:29:36.870Z,3.64
2023-01-07T16:32:07.084Z,3.61
2023-01-07T16:34:34.970Z,3.65
2023-01-07T16:37:04.763Z,3.67
2023-01-07T16:39:35.467Z,3.66
2023-01-07T16:42:24.698Z,3.63
2023-01-07T16:44:52.764Z,3.65
2023-01-07T16:47:33.171Z,3.65
2023-01-07T16:50:29.611Z,3.63
2023-01-07T16:52:57.689Z,3.67
2023-01-07T16:55:44.525Z,3.67
2023-01-07T16:58:24.622Z,3.67
2023-01-07T17:00:54.231Z,3.66
2023-01-07T17:03:23.121Z,3.63
2023-01-07T17:06:02.720Z,3.64
2023-01-07T17:08:31.435Z,3.62
2023-01-07T17:11:06.024Z,3.64
2023-01-07T17:13:38.812Z,3.63
2023-01-07T17:16:16.339Z,3.65
2023-01-07T17:18:47.033Z,3.58
2023-01-07T17:21:33.997Z,3.54
2023-01-07T17:24:01.912Z,3.53
2023-01-07T17:26:40.308Z,3.50
2023-01-07T17:29:12.906Z,3.53
2023-01-07T17:31:41.313Z,3.51
2023-01-07T17:34:11.362Z,3.55
2023-01-07T17:36:39.499Z,3.54
2023-01-07T17:39:08.317Z,3.53
2023-01-07T17:41:55.655Z,3.51
2023-01-07T17:44:23.559Z,3.52
2023-01-07T17:46:51.783Z,3.53
2023-01-07T17:49:20.693Z,3.51
2023-01-07T17:51:49.741Z,3.52
2023-01-07T17:54:25.471Z,3.48
2023-01-07T17:56:53.386Z,3.40
2023-01-07T17:59:23.481Z,3.40
2023-01-07T18:01:55.524Z,3.36
2023-01-07T18:04:23.706Z,3.38
2023-01-07T18:06:51.542Z,3.37
2023-01-07T18:09:19.599Z,3.36
2023-01-07T18:12:06.629Z,3.43
2023-01-07T18:14:34.496Z,3.46
2023-01-07T18:17:02.599Z,3.46
2023-01-07T18:19:31.146Z,3.45
2023-01-07T18:21:58.969Z,3.50
2023-01-07T18:24:28.154Z,3.47
2023-01-07T18:26:56.767Z,3.48
2023-01-07T18:29:24.876Z,3.49
2023-01-07T18:31:53.309Z,3.48
2023-01-07T18:34:21.513Z,3.46
2023-01-07T18:36:49.700Z,3.40
2023-01-07T18:39:19.868Z,3.42
2023-01-07T18:41:53.629Z,3.35
2023-01-07T18:44:22.859Z,3.43
2023-01-07T18:46:50.743Z,3.46
2023-01-07T18:49:18.978Z,3.47
2023-01-07T18:51:47.908Z,3.47
2023-01-07T18:54:16.239Z,3.46
2023-01-07T18:56:45.967Z,3.48
2023-01-07T18:59:14.200Z,3.48
2023-01-07T19:01:42.256Z,3.50
2023-01-07T19:04:10.321Z,3.52
2023-01-07T19:06:38.285Z,3.51
2023-01-07T19:09:06.784Z,3.49
2023-01-07T19:11:34.656Z,3.56
2023-01-07T19:14:04.177Z,3.55
2023-01-07T19:16:32.084Z,3.56
2023-01-07T19:19:00.391Z,3.51
2023-01-07T19:21:28.868Z,3.57
2023-01-07T19:23:57.313Z,3.46
2023-01-07T19:26:26.797Z,3.41
2023-01-07T19:28:54.639Z,3.47
2023-01-07T19:31:23.782Z,3.50
2023-01-07T19:33:52.019Z,3.46
2023-01-07T19:36:20.739Z,3.48
2023-01-07T19:38:49.846Z,3.48
2023-01-07T19:41:19.799Z,3.51
2023-01-07T19:43:47.839Z,3.51
2023-01-07T19:46:16.385Z,3.49
2023-01-07T19:48:47.035Z,3.52
2023-01-07T19:51:15.045Z,3.54
2023-01-07T19:53:43.198Z,3.54
2023-01-07T19:56:11.974Z,3.54
2023-01-07T19:58:40.298Z,3.49
2023-01-07T20:01:11.657Z,3.52
2023-01-07T20:03:41.057Z,3.51
2023-01-07T20:06:16.683Z,3.55
2023-01-07T20:08:45.175Z,3.54
2023-01-07T20:11:13.207Z,3.54
2023-01-07T20:13:41.507Z,3.53
2023-01-07T20:16:10.702Z,3.52
2023-01-07T20:18:41.578Z,3.45
2023-01-07T20:21:12.065Z,3.45
2023-01-07T20:23:42.011Z,3.46
2023-01-07T20:26:11.771Z,3.47
2023-01-07T20:28:40.475Z,3.37
2023-01-07T20:31:10.997Z,3.40
2023-01-07T20:33:40.368Z,3.36
2023-01-07T20:36:10.190Z,3.36
2023-01-07T20:38:38.197Z,3.35
2023-01-07T20:41:07.273Z,3.30
2023-01-07T20:43:36.652Z,3.30
2023-01-07T20:46:05.941Z,3.25
2023-01-07T20:48:34.785Z,3.26
2023-01-07T20:51:06.670Z,3.25
2023-01-07T20:53:36.153Z,3.24
2023-01-07T20:56:04.744Z,3.22
2023-01-07T20:58:33.783Z,3.20
2023-01-07T21:01:07.240Z,3.16
2023-01-07T21:03:35.905Z,3.13
2023-01-07T21:06:03.831Z,3.11
2023-01-07T21:08:31.738Z,3.10
2023-01-07T21:10:59.589Z,3.07
2023-01-07T21:13:27.510Z,3.03
2023-01-07T21:16:01.041Z,3.00
2023-01-07T21:18:29.140Z,2.96
2023-01-07T21:20:56.938Z,2.93
2023-01-07T21:23:26.567Z,2.93
2023-01-07T21:25:54.478Z,2.91
2023-01-07T21:28:22.305Z,2.90
2023-01-07T21:30:50.307Z,2.90
2023-01-07T21:33:18.068Z,2.88
2023-01-07T21:35:45.969Z,2.88
2023-01-07T21:38:14.964Z,2.86
2023-01-07T21:40:43.053Z,2.85
2023-01-07T21:43:10.883Z,2.87
2023-01-07T21:45:38.711Z,2.92
2023-01-07T21:48:06.772Z,2.93
2023-01-07T21:50:34.571Z,2.95
2023-01-07T21:53:02.453Z,2.98
2023-01-07T21:55:31.709Z,3.03
2023-01-07T21:57:59.480Z,3.05
2023-01-07T22:00:27.457Z,3.07
2023-01-07T22:02:55.302Z,3.08
2023-01-07T22:05:23.069Z,3.04
2023-01-07T22:07:51.018Z,3.04
2023-01-07T22:10:19.619Z,3.04
2023-01-07T22:12:47.637Z,3.05
2023-01-07T22:15:15.506Z,3.03
2023-01-07T22:17:43.428Z,3.03
2023-01-07T22:20:11.855Z,3.01
2023-01-07T22:22:39.686Z,2.97
2023-01-07T22:25:08.057Z,2.97
2023-01-07T22:27:35.881Z,2.94
2023-01-07T22:30:04.158Z,2.95
2023-01-07T22:32:32.018Z,2.95
2023-01-07T22:35:00.952Z,2.92
2023-01-07T22:37:28.842Z,2.93
2023-01-07T22:39:59.196Z,2.95
2023-01-07T22:42:33.036Z,2.93
2023-01-07T22:45:03.179Z,2.90
2023-01-07T22:47:35.350Z,2.88
2023-01-07T22:50:04.697Z,2.83
2023-01-07T22:52:32.784Z,2.81
2023-01-07T22:55:01.138Z,2.79
2023-01-07T22:58:09.167Z,2.85
2023-01-07T23:00:52.171Z,2.87
2023-01-07T23:03:20.876Z,2.89
2023-01-07T23:05:49.077Z,2.91
2023-01-07T23:08:17.380Z,2.95
2023-01-07T23:10:45.964Z,2.89
2023-01-07T23:13:14.350Z,2.93
2023-01-07T23:15:42.116Z,2.98
2023-01-07T23:18:10.066Z,2.97
2023-01-07T23:20:38.718Z,3.01
2023-01-07T23:23:06.768Z,2.94
2023-01-07T23:25:36.655Z,2.96
2023-01-07T23:28:04.812Z,2.98
2023-01-07T23:30:32.626Z,2.99
2023-01-07T23:33:00.453Z,3.05
2023-01-07T23:35:28.856Z,3.06
2023-01-07T23:37:56.719Z,3.04
2023-01-07T23:40:26.377Z,2.99
2023-01-07T23:42:54.870Z,3.04
2023-01-07T23:45:23.875Z,2.95
2023-01-07T23:47:51.680Z,2.88
2023-01-07T23:50:19.591Z,2.89
2023-01-07T23:52:47.494Z,2.87
2023-01-07T23:55:15.625Z,2.93
2023-01-07T23:57:43.409Z,2.94
